sensor_id;sensor_type;location;lat;lon;timestamp;pressure;altitude;pressure_sealevel;temperature;humidity
12801;BME280;6464;42.494;27.470;2023-03-23T00:00:37;97615.72;;;7.86;100.00
12801;BME280;6464;42.494;27.470;2023-03-23T00:03:34;97629.28;;;7.79;100.00
12801;BME280;6464;42.494;27.470;2023-03-23T00:06:16;97602.06;;;7.65;100.00
12801;BME280;6464;42.494;27.470;2023-03-23T00:08:45;97716.94;;;8.22;100.00
12801;BME280;6464;42.494;27.470;2023-03-23T00:11:23;97746.19;;;8.62;100.00
12801;BME280;6464;42.494;27.470;2023-03-23T00:14:05;97680.31;;;8.65;100.00
12801;BME280;6464;42.494;27.470;2023-03-23T00:16:40;97608.97;;;7.82;100.00
12801;BME280;6464;42.494;27.470;2023-03-23T00:22:25;97718.00;;;8.34;100.00
12801;BME280;6464;42.494;27.470;2023-03-23T00:25:05;97672.69;;;7.84;100.00
12801;BME280;6464;42.494;27.470;2023-03-23T00:27:45;97787.25;;;8.31;100.00
12801;BME280;6464;42.494;27.470;2023-03-23T00:30:26;97828.66;;;8.26;100.00
12801;BME280;6464;42.494;27.470;2023-03-23T00:32:56;97657.03;;;7.67;100.00
12801;BME280;6464;42.494;27.470;2023-03-23T00:35:27;97743.94;;;8.08;100.00
12801;BME280;6464;42.494;27.470;2023-03-23T00:38:05;97753.25;;;7.82;100.00
12801;BME280;6464;42.494;27.470;2023-03-23T00:40:46;97746.47;;;8.10;100.00
12801;BME280;6464;42.494;27.470;2023-03-23T00:43:27;97703.91;;;8.05;100.00
12801;BME280;6464;42.494;27.470;2023-03-23T00:46:09;97725.47;;;8.10;100.00
12801;BME280;6464;42.494;27.470;2023-03-23T00:48:53;97717.78;;;8.22;100.00
12801;BME280;6464;42.494;27.470;2023-03-23T00:51:23;97627.44;;;8.11;100.00
12801;BME280;6464;42.494;27.470;2023-03-23T00:53:54;97729.16;;;8.53;100.00
12801;BME280;6464;42.494;27.470;2023-03-23T00:56:21;97664.72;;;7.86;100.00
12801;BME280;6464;42.494;27.470;2023-03-23T00:58:49;97654.00;;;7.43;100.00
12801;BME280;6464;42.494;27.470;2023-03-23T12:22:06;98797.72;;;10.59;100.00
12801;BME280;6464;42.494;27.470;2023-03-23T12:33:29;98766.81;;;9.50;100.00
12801;BME280;6464;42.494;27.470;2023-03-23T12:41:32;98727.50;;;9.85;100.00
12801;BME280;6464;42.494;27.470;2023-03-23T12:49:59;98856.44;;;10.98;100.00
12801;BME280;6464;42.494;27.470;2023-03-23T12:52:44;98888.00;;;10.64;100.00
12801;BME280;6464;42.494;27.470;2023-03-23T12:55:42;98768.94;;;9.23;100.00
12801;BME280;6464;42.494;27.470;2023-03-23T13:06:15;98803.84;;;10.23;100.00
12801;BME280;6464;42.494;27.470;2023-03-23T13:09:27;98869.50;;;12.67;100.00
12801;BME280;6464;42.494;27.470;2023-03-23T13:12:03;98957.88;;;11.97;100.00
12801;BME280;6464;42.494;27.470;2023-03-23T13:14:43;99138.97;;;11.66;100.00
12801;BME280;6464;42.494;27.470;2023-03-23T13:21:43;99199.22;;;11.58;100.00
12801;BME280;6464;42.494;27.470;2023-03-23T13:35:16;99369.59;;;12.61;100.00
12801;BME280;6464;42.494;27.470;2023-03-23T13:37:49;99253.66;;;11.21;100.00
12801;BME280;6464;42.494;27.470;2023-03-23T13:40:29;99312.91;;;10.94;100.00
12801;BME280;6464;42.494;27.470;2023-03-23T13:42:59;99417.34;;;12.01;100.00
12801;BME280;6464;42.494;27.470;2023-03-23T13:45:42;99362.28;;;11.92;100.00
12801;BME280;6464;42.494;27.470;2023-03-23T13:48:43;99354.13;;;13.07;100.00
12801;BME280;6464;42.494;27.470;2023-03-23T13:51:32;99225.56;;;15.78;100.00
12801;BME280;6464;42.494;27.470;2023-03-23T13:54:25;99438.50;;;17.67;100.00
12801;BME280;6464;42.494;27.470;2023-03-23T13:57:01;99593.91;;;17.28;100.00
12801;BME280;6464;42.494;27.470;2023-03-23T13:59:46;99729.75;;;15.78;100.00
12801;BME280;6464;42.494;27.470;2023-03-23T14:02:37;99742.22;;;13.86;100.00
12801;BME280;6464;42.494;27.470;2023-03-23T14:05:34;99635.13;;;15.10;100.00
12801;BME280;6464;42.494;27.470;2023-03-23T14:08:13;99722.25;;;14.69;100.00
12801;BME280;6464;42.494;27.470;2023-03-23T14:10:51;99611.69;;;12.49;100.00
12801;BME280;6464;42.494;27.470;2023-03-23T14:13:29;99684.56;;;11.70;100.00
12801;BME280;6464;42.494;27.470;2023-03-23T14:16:00;99536.31;;;11.57;100.00
12801;BME280;6464;42.494;27.470;2023-03-23T14:18:35;99628.69;;;11.36;100.00
12801;BME280;6464;42.494;27.470;2023-03-23T14:21:38;99437.25;;;10.39;100.00
12801;BME280;6464;42.494;27.470;2023-03-23T14:27:12;99442.72;;;12.05;100.00
12801;BME280;6464;42.494;27.470;2023-03-23T14:29:44;99352.50;;;11.14;100.00
12801;BME280;6464;42.494;27.470;2023-03-23T14:32:19;99581.94;;;11.17;100.00
12801;BME280;6464;42.494;27.470;2023-03-23T14:35:20;99372.34;;;10.13;100.00
12801;BME280;6464;42.494;27.470;2023-03-23T23:03:10;97169.44;;;6.80;100.00
12801;BME280;6464;42.494;27.470;2023-03-23T23:05:41;97209.56;;;7.09;100.00
12801;BME280;6464;42.494;27.470;2023-03-23T23:08:19;97057.63;;;6.23;100.00
12801;BME280;6464;42.494;27.470;2023-03-23T23:11:01;97139.91;;;6.48;100.00
12801;BME280;6464;42.494;27.470;2023-03-23T23:13:32;97146.66;;;6.52;100.00
12801;BME280;6464;42.494;27.470;2023-03-23T23:16:00;97086.00;;;6.59;100.00
12801;BME280;6464;42.494;27.470;2023-03-23T23:18:45;97156.91;;;6.99;100.00
12801;BME280;6464;42.494;27.470;2023-03-23T23:21:15;97180.59;;;6.98;100.00
12801;BME280;6464;42.494;27.470;2023-03-23T23:23:45;97045.97;;;6.43;100.00
12801;BME280;6464;42.494;27.470;2023-03-23T23:26:14;97001.69;;;6.26;100.00
12801;BME280;6464;42.494;27.470;2023-03-23T23:28:44;96970.56;;;6.50;100.00
12801;BME280;6464;42.494;27.470;2023-03-23T23:31:27;96918.25;;;6.21;100.00
12801;BME280;6464;42.494;27.470;2023-03-23T23:37:15;96919.38;;;7.27;100.00
12801;BME280;6464;42.494;27.470;2023-03-23T23:39:54;96881.09;;;6.84;100.00
12801;BME280;6464;42.494;27.470;2023-03-23T23:42:35;96728.94;;;6.36;100.00
12801;BME280;6464;42.494;27.470;2023-03-23T23:45:03;96812.25;;;6.42;100.00
12801;BME280;6464;42.494;27.470;2023-03-23T23:47:45;96884.44;;;6.86;100.00
12801;BME280;6464;42.494;27.470;2023-03-23T23:50:15;96808.06;;;6.40;100.00
12801;BME280;6464;42.494;27.470;2023-03-23T23:53:05;96752.00;;;6.03;100.00
12801;BME280;6464;42.494;27.470;2023-03-23T23:55:46;96699.47;;;5.93;100.00
12801;BME280;6464;42.494;27.470;2023-03-23T23:58:27;96794.38;;;6.22;100.00
